Time;durP1;ratioP1;P1;durP2;ratioP2;P2;SDS_P1;SDS_P2;PMS_P1;PMS_P2;Temp;Humidity;BMP_temperature;BMP_pressure;BME280_temperature;BME280_humidity;BME280_pressure;Samples;Min_cycle;Max_cycle;Signal;HPM_P1;HPM_P2
2021/05/11 00:00:34;;;;;;;7.43;6.72;;;;;;;16.21;79.81;99501.94;10245920;28;20121;-69
2021/05/11 00:05:35;;;;;;;8.20;7.53;;;;;;;16.20;79.71;99500.25;10272838;28;20046;-70
2021/05/11 00:10:36;;;;;;;9.45;7.55;;;;;;;16.16;80.29;99488.19;10258495;28;20133;-70
2021/05/11 00:15:36;;;;;;;8.32;7.68;;;;;;;16.07;80.56;99483.91;10264308;28;20059;-70
2021/05/11 00:20:37;;;;;;;9.10;8.40;;;;;;;16.06;81.35;99476.84;10267468;28;20047;-71
2021/05/11 00:25:39;;;;;;;8.63;7.93;;;;;;;16.04;81.85;99476.22;10264657;28;20126;-71
2021/05/11 00:30:40;;;;;;;9.40;8.55;;;;;;;16.05;81.75;99483.25;10278776;28;20047;-69
2021/05/11 00:35:41;;;;;;;10.93;9.93;;;;;;;16.13;81.12;99504.66;10294441;28;20062;-69
2021/05/11 00:40:41;;;;;;;10.85;9.85;;;;;;;16.07;81.75;99483.91;10269999;28;20054;-70
2021/05/11 00:45:42;;;;;;;11.15;10.05;;;;;;;16.08;82.36;99493.63;10283445;28;20054;-70
2021/05/11 00:50:43;;;;;;;11.40;9.73;;;;;;;16.04;82.08;99468.97;10265446;28;20047;-70
2021/05/11 00:55:45;;;;;;;10.45;9.55;;;;;;;16.05;82.27;99481.41;10257085;28;20847;-70
2021/05/11 01:00:46;;;;;;;10.93;9.85;;;;;;;16.10;81.56;99496.16;10273545;28;20063;-70
2021/05/11 01:05:47;;;;;;;10.65;9.73;;;;;;;16.15;80.87;99508.00;10278401;28;20055;-70
2021/05/11 01:10:48;;;;;;;11.63;10.50;;;;;;;16.08;81.23;99453.38;10241911;28;20108;-71
2021/05/11 01:15:51;;;;;;;10.45;9.45;;;;;;;16.02;81.62;99446.03;10266553;28;20469;-71
2021/05/11 01:20:55;;;;;;;13.40;12.20;;;;;;;15.94;81.91;99430.78;10251048;28;20049;-70
2021/05/11 01:26:10;;;;;;;14.52;13.02;;;;;;;15.88;82.75;99421.63;10264554;28;20484;-69
2021/05/11 02:22:37;;;;;;;5.07;4.57;;;;;;;15.70;80.68;99429.94;10266848;28;20055;-70
2021/05/11 02:23:46;;;;;;;5.28;4.78;;;;;;;15.47;81.10;99404.91;10268375;28;20142;-69
2021/05/11 02:28:48;;;;;;;4.95;4.45;;;;;;;15.49;79.27;99400.19;10261756;28;20704;-70
2021/05/11 02:33:49;;;;;;;6.15;5.55;;;;;;;15.43;81.19;99380.28;10256733;28;20105;-70
2021/05/11 02:38:50;;;;;;;6.68;6.07;;;;;;;15.47;81.60;99376.25;10271413;28;20050;-70
2021/05/11 02:43:51;;;;;;;6.90;6.20;;;;;;;15.43;81.50;99353.47;10279483;28;20047;-70
2021/05/11 02:48:51;;;;;;;6.07;5.25;;;;;;;15.44;81.30;99340.91;10249398;28;20074;-72
2021/05/11 02:53:52;;;;;;;5.38;4.75;;;;;;;15.43;80.55;99358.81;10248545;28;20054;-71
2021/05/11 02:58:54;;;;;;;4.60;4.20;;;;;;;15.24;82.68;99353.91;10263246;28;20058;-70
2021/05/11 03:03:55;;;;;;;5.50;5.00;;;;;;;15.39;82.46;99378.97;10272273;28;20059;-70
2021/05/11 03:08:56;;;;;;;6.93;5.55;;;;;;;15.42;82.44;99375.94;10280571;28;20086;-69
2021/05/11 03:13:57;;;;;;;6.60;6.00;;;;;;;15.39;82.37;99373.63;10274457;28;20051;-70
2021/05/11 03:18:58;;;;;;;7.15;6.40;;;;;;;15.38;81.85;99366.56;10279285;28;20047;-71
2021/05/11 03:23:59;;;;;;;4.97;4.57;;;;;;;15.20;81.49;99354.25;10276167;28;20083;-69
2021/05/11 03:29:00;;;;;;;6.18;5.57;;;;;;;15.09;81.98;99341.25;10267837;28;20623;-70
2021/05/11 03:34:02;;;;;;;4.25;3.85;;;;;;;14.98;81.54;99338.97;10260431;28;20074;-70
2021/05/11 03:39:07;;;;;;;4.45;4.05;;;;;;;15.06;82.80;99357.69;10246768;28;20070;-72
2021/05/11 03:44:12;;;;;;;4.68;4.10;;;;;;;15.20;81.61;99366.84;10268947;28;20101;-69
2021/05/11 03:49:13;;;;;;;4.38;4.00;;;;;;;15.28;82.23;99379.38;10270881;28;20058;-68
2021/05/11 03:54:15;;;;;;;5.15;4.65;;;;;;;15.27;81.68;99386.59;10265688;28;20557;-70
2021/05/11 03:59:17;;;;;;;4.70;4.30;;;;;;;15.22;82.47;99361.31;10262354;28;20054;-71
2021/05/11 04:04:20;;;;;;;4.55;4.13;;;;;;;15.23;82.85;99341.53;10252829;28;20067;-73
2021/05/11 04:09:57;;;;;;;5.40;4.25;;;;;;;15.22;82.57;99334.50;10244007;28;20128;-71
2021/05/11 04:20:11;;;;;;;5.03;3.75;;;;;;;15.28;81.88;99349.88;10264177;28;20363;-70
2021/05/11 04:25:12;;;;;;;3.85;3.45;;;;;;;15.34;82.27;99344.66;10259184;28;20070;-70
2021/05/11 04:30:15;;;;;;;4.05;3.65;;;;;;;15.42;81.14;99351.81;10258659;28;20062;-70
2021/05/11 04:35:16;;;;;;;3.67;3.38;;;;;;;15.49;81.56;99351.94;10256771;28;20062;-70
2021/05/11 04:40:18;;;;;;;3.83;3.53;;;;;;;15.47;80.84;99344.06;10238691;28;20409;-72
2021/05/11 04:45:22;;;;;;;5.45;3.95;;;;;;;15.45;81.13;99327.31;10266919;28;20046;-70
2021/05/11 04:50:27;;;;;;;6.85;4.00;;;;;;;15.43;81.74;99321.28;10256483;28;20055;-69
2021/05/11 04:55:29;;;;;;;4.38;3.97;;;;;;;15.43;81.40;99305.19;10257285;28;20454;-70
2021/05/11 05:00:30;;;;;;;6.07;3.90;;;;;;;15.44;81.41;99296.16;10253655;28;20054;-69
2021/05/11 05:05:31;;;;;;;4.28;3.72;;;;;;;15.49;81.62;99304.50;10228190;28;20523;-72
2021/05/11 05:10:33;;;;;;;4.22;3.83;;;;;;;15.47;82.36;99317.25;10246558;28;20509;-72
2021/05/11 05:15:34;;;;;;;4.38;3.80;;;;;;;15.50;82.14;99326.78;10239002;28;20051;-70
2021/05/11 05:20:36;;;;;;;4.88;4.28;;;;;;;15.45;81.91;99340.72;10242469;28;20057;-70
2021/05/11 05:25:39;;;;;;;7.43;4.70;;;;;;;15.53;82.62;99363.97;10254071;28;20552;-71
2021/05/11 05:30:40;;;;;;;6.13;5.03;;;;;;;15.59;81.60;99357.91;10232996;28;20050;-69
2021/05/11 05:35:44;;;;;;;6.38;5.78;;;;;;;15.64;81.65;99366.25;10243024;28;20055;-69
2021/05/11 05:40:47;;;;;;;6.53;5.63;;;;;;;15.74;81.49;99382.09;10227303;28;20254;-69
2021/05/11 05:45:52;;;;;;;8.07;5.95;;;;;;;15.83;81.06;99356.91;10239284;28;20082;-69
2021/05/11 05:50:59;;;;;;;7.55;5.32;;;;;;;15.90;81.44;99347.13;10240278;28;20336;-69
2021/05/11 05:56:03;;;;;;;6.25;5.75;;;;;;;16.02;80.23;99349.41;10242089;28;20113;-73
2021/05/11 06:01:09;;;;;;;3.03;2.67;;;;;;;16.02;77.52;99350.22;10221396;28;20055;-68
2021/05/11 06:06:12;;;;;;;6.10;3.63;;;;;;;16.02;78.35;99357.47;10228082;28;20169;-69
2021/05/11 06:21:36;;;;;;;5.28;4.00;;;;;;;16.16;77.87;99305.63;10243465;28;20054;-73
2021/05/11 06:26:37;;;;;;;5.28;4.25;;;;;;;16.24;77.09;99313.63;10237931;28;20138;-69
2021/05/11 06:31:39;;;;;;;5.57;4.35;;;;;;;16.27;77.29;99309.72;10245005;28;20127;-69
2021/05/11 06:36:40;;;;;;;5.13;3.50;;;;;;;16.32;76.45;99315.38;10242534;28;20097;-68
2021/05/11 06:41:45;;;;;;;4.35;3.95;;;;;;;16.22;77.74;99331.75;10228437;28;20086;-71
2021/05/11 06:57:29;;;;;;;3.50;3.20;;;;;;;16.16;75.39;99347.75;10256070;28;20131;-70
2021/05/11 07:02:31;;;;;;;4.30;2.60;;;;;;;16.11;75.14;99355.50;10237546;28;20103;-70
2021/05/11 07:07:35;;;;;;;3.25;3.05;;;;;;;16.05;76.66;99341.81;10248310;28;20046;-68
2021/05/11 07:13:10;;;;;;;3.60;3.30;;;;;;;16.15;77.44;99329.97;10248753;28;20046;-73
2021/05/11 07:18:15;;;;;;;3.45;3.15;;;;;;;16.42;77.81;99307.91;10248484;28;20153;-71
2021/05/11 07:23:20;;;;;;;3.33;3.07;;;;;;;16.63;77.01;99308.16;10248870;28;20059;-71
2021/05/11 07:33:48;;;;;;;4.20;3.80;;;;;;;16.81;76.21;99289.78;10250311;28;20552;-72
2021/05/11 07:38:50;;;;;;;3.10;2.90;;;;;;;17.01;74.88;99308.91;10248076;28;20134;-69
2021/05/11 07:43:55;;;;;;;3.88;3.38;;;;;;;17.11;73.95;99303.22;10234719;28;20330;-68
2021/05/11 08:04:41;;;;;;;4.30;3.90;;;;;;;17.20;72.66;99274.34;10252527;28;20050;-70
2021/05/11 08:30:58;;;;;;;6.55;5.38;;;;;;;17.49;72.09;99290.38;10245393;28;20113;-69
2021/05/11 08:36:00;;;;;;;4.90;4.25;;;;;;;17.57;71.71;99286.72;10233020;28;20129;-71
2021/05/11 08:41:02;;;;;;;5.05;4.15;;;;;;;17.74;69.91;99292.66;10248498;28;20133;-67
2021/05/11 08:46:07;;;;;;;4.95;4.50;;;;;;;17.67;71.01;99287.25;10245387;28;20129;-68
2021/05/11 09:23:47;;;;;;;3.30;3.10;;;;;;;18.67;65.50;99237.78;10242417;28;20055;-68
2021/05/11 09:28:52;;;;;;;3.90;3.60;;;;;;;18.66;65.28;99258.53;10244206;28;22385;-71
2021/05/11 09:34:27;;;;;;;4.75;3.60;;;;;;;19.16;66.13;99252.09;10251416;28;20583;-69
2021/05/11 10:49:39;;;;;;;1.85;1.70;;;;;;;19.89;58.96;99310.75;10251994;28;20043;-69
2021/05/11 11:05:37;;;;;;;1.42;1.27;;;;;;;19.28;60.86;99314.38;10250971;28;20110;-68
2021/05/11 11:10:40;;;;;;;1.95;1.48;;;;;;;18.82;63.06;99315.81;10241916;28;20085;-66
2021/05/11 11:15:41;;;;;;;2.07;1.27;;;;;;;18.67;62.61;99297.09;10248583;28;20268;-68
2021/05/11 11:20:45;;;;;;;2.20;1.52;;;;;;;18.75;63.63;99305.03;10252956;28;20051;-69
2021/05/11 11:26:04;;;;;;;4.05;1.70;;;;;;;19.26;62.50;99298.41;10248400;28;20047;-71
2021/05/11 11:31:26;;;;;;;2.85;0.90;;;;;;;19.25;60.36;99304.81;10249383;28;20098;-67
2021/05/11 11:36:32;;;;;;;2.25;1.15;;;;;;;19.52;59.69;99304.88;10248466;23;20053;-73
2021/05/11 11:41:35;;;;;;;1.35;1.25;;;;;;;19.68;59.14;99299.09;10293120;28;20050;-73
2021/05/11 11:46:37;;;;;;;1.63;1.15;;;;;;;19.73;59.54;99291.19;10300476;28;20696;-77
2021/05/11 11:51:39;;;;;;;1.73;1.13;;;;;;;19.64;58.39;99281.63;10299844;28;20050;-74
2021/05/11 12:02:03;;;;;;;1.98;0.98;;;;;;;19.78;58.16;99296.81;10298153;28;20061;-73
2021/05/11 12:07:08;;;;;;;1.23;1.05;;;;;;;20.13;57.98;99268.75;10304063;28;20665;-75
2021/05/11 12:12:10;;;;;;;1.10;1.00;;;;;;;20.47;56.75;99264.94;10295570;28;20054;-74
2021/05/11 12:17:12;;;;;;;1.40;1.30;;;;;;;20.01;57.17;99286.66;10299665;28;20065;-74
2021/05/11 12:22:14;;;;;;;3.00;1.67;;;;;;;20.14;57.23;99287.47;10295517;28;20567;-75
2021/05/11 12:27:19;;;;;;;1.80;1.48;;;;;;;20.23;57.80;99295.38;10293706;28;20519;-74
2021/05/11 12:32:24;;;;;;;2.65;1.60;;;;;;;19.97;57.66;99307.84;10294247;28;20054;-73
2021/05/11 12:37:42;;;;;;;1.42;1.23;;;;;;;19.54;58.75;99310.91;10291491;28;20089;-71
2021/05/11 12:42:44;;;;;;;1.60;1.42;;;;;;;19.06;59.92;99322.59;10290526;28;20054;-74
2021/05/11 12:47:47;;;;;;;1.45;1.30;;;;;;;19.22;60.64;99326.81;10293738;28;20043;-72
2021/05/11 12:52:51;;;;;;;2.35;1.80;;;;;;;18.88;60.80;99331.22;10291059;28;20054;-72
2021/05/11 12:57:57;;;;;;;2.42;2.22;;;;;;;18.71;60.97;99336.91;10291255;28;20093;-72
2021/05/11 13:03:19;;;;;;;3.22;2.15;;;;;;;18.62;62.06;99332.72;10292133;28;20129;-70
2021/05/11 13:30:05;;;;;;;2.42;1.25;;;;;;;18.10;64.62;99290.94;10293352;28;20050;-73
2021/05/11 13:35:07;;;;;;;1.15;0.82;;;;;;;18.01;62.85;99288.41;10292531;28;20050;-72
2021/05/11 13:40:09;;;;;;;1.85;1.33;;;;;;;18.23;62.78;99291.03;10291962;28;20046;-71
2021/05/11 13:45:11;;;;;;;3.03;1.25;;;;;;;18.24;62.50;99265.75;10291410;28;20050;-72
2021/05/11 13:50:13;;;;;;;1.13;0.95;;;;;;;18.23;62.00;99274.03;10290222;28;20207;-72
2021/05/11 13:55:23;;;;;;;1.42;0.73;;;;;;;18.05;62.32;99272.66;10290221;28;20117;-73
2021/05/11 14:05:44;;;;;;;2.78;1.38;;;;;;;17.81;64.38;99271.22;10296003;28;20047;-71
2021/05/11 14:10:46;;;;;;;2.17;1.45;;;;;;;17.82;64.79;99268.31;10299300;28;20054;-72
2021/05/11 14:15:47;;;;;;;1.67;1.20;;;;;;;17.92;65.44;99257.22;10294355;28;20150;-71
2021/05/11 14:20:49;;;;;;;1.55;1.23;;;;;;;17.85;66.38;99256.34;10297352;28;20136;-74
2021/05/11 14:25:51;;;;;;;2.13;1.45;;;;;;;17.97;67.36;99273.66;10296380;28;20046;-72
2021/05/11 14:30:52;;;;;;;4.88;2.13;;;;;;;17.95;66.68;99282.94;10293975;28;20069;-74
2021/05/11 14:35:55;;;;;;;2.80;1.90;;;;;;;17.81;68.00;99298.94;10294142;28;20287;-71
2021/05/11 14:41:02;;;;;;;3.13;2.13;;;;;;;17.75;67.68;99306.97;10295785;28;20092;-73
2021/05/11 14:46:05;;;;;;;2.42;2.05;;;;;;;17.83;68.69;99307.69;10293050;28;20153;-71
2021/05/11 14:51:09;;;;;;;3.28;1.95;;;;;;;17.93;67.72;99307.38;10296663;28;20121;-72
2021/05/11 14:56:12;;;;;;;3.30;2.28;;;;;;;17.70;68.37;99314.78;10296104;28;20829;-73
2021/05/11 15:01:14;;;;;;;4.30;2.33;;;;;;;17.71;69.58;99338.00;10297371;28;20082;-74
2021/05/11 15:06:15;;;;;;;3.08;2.20;;;;;;;17.65;70.16;99332.38;10295908;28;20402;-72
2021/05/11 15:11:17;;;;;;;3.42;2.60;;;;;;;17.66;70.06;99344.78;10300313;28;20169;-74
2021/05/11 15:16:22;;;;;;;3.10;2.45;;;;;;;17.62;69.84;99332.72;10288671;28;20484;-73
2021/05/11 15:21:23;;;;;;;3.65;2.30;;;;;;;17.56;70.50;99332.66;10295646;28;20047;-71
2021/05/11 15:26:34;;;;;;;2.30;2.10;;;;;;;17.65;70.33;99337.75;10297774;28;20062;-71
2021/05/11 15:31:36;;;;;;;2.58;1.95;;;;;;;17.53;70.31;99349.19;10295898;28;20658;-74
2021/05/11 15:36:38;;;;;;;2.72;2.50;;;;;;;17.56;71.14;99341.56;10295784;28;20527;-71
2021/05/11 15:41:39;;;;;;;0.90;0.68;;;;;;;17.54;66.42;99340.94;10294963;28;20046;-72
2021/05/11 15:46:40;;;;;;;1.58;0.55;;;;;;;17.37;66.53;99355.63;10299021;28;20734;-75
2021/05/11 15:51:42;;;;;;;1.42;0.65;;;;;;;17.31;66.71;99359.94;10298576;28;20142;-74
2021/05/11 15:56:43;;;;;;;1.00;0.52;;;;;;;17.11;66.01;99346.22;10296802;28;20140;-74
2021/05/11 16:01:45;;;;;;;1.38;0.60;;;;;;;16.82;66.96;99342.53;10297881;28;20049;-76
2021/05/11 16:06:47;;;;;;;1.10;0.80;;;;;;;16.84;67.05;99361.97;10299475;28;20113;-72
2021/05/11 16:11:49;;;;;;;1.33;0.63;;;;;;;16.74;67.04;99348.84;10295285;28;20061;-70
2021/05/11 16:16:52;;;;;;;0.65;0.50;;;;;;;16.59;67.94;99346.16;10293990;28;20065;-73
2021/05/11 16:21:54;;;;;;;1.90;1.45;;;;;;;16.71;68.50;99341.16;10296497;28;20501;-73
2021/05/11 16:26:55;;;;;;;1.13;0.70;;;;;;;16.70;68.12;99339.47;10289635;28;20538;-73
2021/05/11 16:31:58;;;;;;;1.58;1.10;;;;;;;16.77;68.08;99340.41;10289389;28;20054;-74
2021/05/11 16:37:02;;;;;;;1.00;0.90;;;;;;;16.81;67.90;99340.03;10291670;28;20077;-74
2021/05/11 16:42:04;;;;;;;1.60;0.77;;;;;;;16.68;68.35;99335.28;10286862;28;20126;-74
2021/05/11 16:47:06;;;;;;;1.35;0.80;;;;;;;16.54;69.21;99340.50;10307219;28;20065;-75
2021/05/11 16:52:13;;;;;;;1.80;1.00;;;;;;;16.51;69.26;99350.78;10214396;28;20388;-61
2021/05/11 16:57:15;;;;;;;2.80;1.00;;;;;;;16.57;69.07;99367.00;10218263;28;20051;-61
2021/05/11 17:02:16;;;;;;;0.70;0.50;;;;;;;16.55;68.93;99369.03;10214216;28;20130;-61
2021/05/11 17:07:18;;;;;;;1.63;0.80;;;;;;;16.42;69.38;99375.03;10209286;28;20917;-60
2021/05/11 17:12:19;;;;;;;0.95;0.75;;;;;;;16.43;69.89;99381.25;10214656;28;20097;-62
2021/05/11 17:17:21;;;;;;;1.05;0.70;;;;;;;16.32;70.24;99373.63;10218523;28;20101;-61
2021/05/11 17:22:22;;;;;;;3.22;1.17;;;;;;;16.31;70.34;99382.72;10218121;28;20750;-61
2021/05/11 17:27:24;;;;;;;0.50;0.50;;;;;;;16.30;71.08;99381.03;10216402;28;20095;-61
2021/05/11 17:32:31;;;;;;;1.08;0.80;;;;;;;16.25;72.72;99390.44;10224459;28;20073;-61
2021/05/11 17:37:32;;;;;;;1.27;0.77;;;;;;;16.06;72.92;99393.63;10228203;28;20066;-61
2021/05/11 17:42:34;;;;;;;1.27;1.17;;;;;;;15.96;73.94;99407.31;10229997;28;20160;-61
2021/05/11 17:47:36;;;;;;;0.82;0.70;;;;;;;15.90;75.11;99403.50;10226669;28;20501;-62
2021/05/11 17:52:37;;;;;;;2.17;1.08;;;;;;;15.94;74.82;99406.63;10262805;28;20173;-61
2021/05/11 17:57:39;;;;;;;2.15;0.90;;;;;;;15.89;75.77;99417.91;10264076;28;20066;-61
2021/05/11 18:02:40;;;;;;;1.92;1.08;;;;;;;15.83;75.96;99425.84;10240387;28;20075;-61
2021/05/11 18:07:42;;;;;;;1.90;1.02;;;;;;;15.85;75.89;99427.34;10228982;28;20069;-61
2021/05/11 18:12:44;;;;;;;2.22;1.70;;;;;;;15.76;76.72;99431.06;10228141;28;20690;-61
2021/05/11 18:17:46;;;;;;;1.83;1.58;;;;;;;15.90;77.76;99440.25;10237829;28;20055;-61
2021/05/11 18:22:48;;;;;;;1.83;1.42;;;;;;;15.71;79.34;99436.94;10240281;28;20054;-61
2021/05/11 18:27:50;;;;;;;4.55;2.20;;;;;;;15.76;80.39;99435.59;10245050;28;20187;-61
2021/05/11 18:32:52;;;;;;;3.22;1.60;;;;;;;15.81;79.98;99444.81;10247450;28;20153;-61
2021/05/11 18:38:05;;;;;;;1.65;1.10;;;;;;;15.69;79.76;99448.91;10247318;28;20452;-61
2021/05/11 18:43:07;;;;;;;2.53;1.45;;;;;;;15.84;80.87;99462.41;10244802;28;20054;-61
2021/05/11 18:48:24;;;;;;;2.55;1.92;;;;;;;15.97;80.31;99456.44;10237944;28;20050;-63
2021/05/11 18:53:25;;;;;;;2.35;1.60;;;;;;;16.02;78.83;99459.47;10239977;28;20113;-63
2021/05/11 18:58:27;;;;;;;1.60;1.30;;;;;;;15.85;80.62;99462.25;10241132;28;20047;-63
2021/05/11 19:03:31;;;;;;;2.13;1.65;;;;;;;15.89;80.88;99474.28;10241859;28;20136;-61
2021/05/11 19:08:32;;;;;;;2.47;1.80;;;;;;;15.89;80.77;99485.00;10228768;28;20086;-60
2021/05/11 19:13:34;;;;;;;2.72;2.08;;;;;;;15.82;80.60;99485.91;10214531;28;22042;-61
2021/05/11 19:18:38;;;;;;;2.55;2.00;;;;;;;15.69;82.15;99492.66;10208966;28;20062;-61
2021/05/11 19:23:40;;;;;;;3.70;2.72;;;;;;;15.73;81.94;99498.47;10230628;28;20051;-60
2021/05/11 19:28:42;;;;;;;2.90;2.50;;;;;;;15.44;82.92;99491.09;10238333;28;20055;-60
2021/05/11 19:33:49;;;;;;;3.38;3.08;;;;;;;15.40;83.30;99495.94;10241793;28;20509;-61
2021/05/11 19:38:51;;;;;;;5.50;5.00;;;;;;;15.28;83.76;99505.38;10243131;28;20504;-60
2021/05/11 19:43:52;;;;;;;4.53;3.72;;;;;;;15.08;85.53;99495.03;10244118;28;20063;-60
2021/05/11 19:48:54;;;;;;;5.45;4.95;;;;;;;15.05;86.39;99490.03;10241148;28;20662;-60
2021/05/11 19:53:55;;;;;;;6.10;5.60;;;;;;;15.15;85.87;99490.66;10233382;28;20050;-61
2021/05/11 19:58:57;;;;;;;6.20;5.65;;;;;;;15.10;86.53;99498.41;10238255;28;20161;-62
2021/05/11 20:03:58;;;;;;;7.75;7.05;;;;;;;15.19;86.19;99502.72;10240120;28;20074;-62
2021/05/11 20:09:00;;;;;;;9.45;8.65;;;;;;;15.19;86.55;99494.69;10240942;28;20054;-61
2021/05/11 20:14:05;;;;;;;8.60;7.90;;;;;;;15.11;86.30;99505.41;10239006;28;20074;-61
2021/05/11 20:19:07;;;;;;;10.57;9.68;;;;;;;14.98;86.97;99514.00;10234850;28;21472;-62
2021/05/11 20:24:09;;;;;;;10.35;9.50;;;;;;;15.06;87.16;99514.97;10233894;28;20122;-61
2021/05/11 20:29:11;;;;;;;10.80;9.80;;;;;;;14.96;87.78;99528.56;10239524;28;20170;-61
2021/05/11 20:34:17;;;;;;;11.38;10.25;;;;;;;14.99;87.69;99526.38;10233377;28;20404;-61
2021/05/11 20:39:18;;;;;;;11.80;10.65;;;;;;;15.03;87.34;99525.03;10240438;28;20061;-60
2021/05/11 20:44:20;;;;;;;12.00;10.68;;;;;;;14.97;87.73;99522.22;10229608;28;20050;-61
2021/05/11 20:49:23;;;;;;;12.75;11.57;;;;;;;14.94;88.23;99526.06;10230589;28;20444;-61
2021/05/11 20:54:24;;;;;;;14.38;13.07;;;;;;;14.78;89.61;99521.53;10235026;28;20051;-60
2021/05/11 20:59:26;;;;;;;13.98;12.68;;;;;;;15.02;88.07;99519.84;10232338;28;20591;-57
2021/05/11 21:04:28;;;;;;;13.02;11.82;;;;;;;15.21;87.07;99515.97;10229164;28;20114;-56
2021/05/11 21:09:29;;;;;;;16.13;13.57;;;;;;;15.06;87.35;99520.31;10209043;28;20180;-58
2021/05/11 21:14:31;;;;;;;13.80;12.50;;;;;;;15.08;87.02;99518.34;10201557;28;20050;-56
2021/05/11 21:19:32;;;;;;;13.85;12.52;;;;;;;15.17;86.43;99520.81;10207134;28;20168;-57
2021/05/11 21:24:34;;;;;;;15.70;14.25;;;;;;;15.23;86.42;99513.94;10213156;28;20138;-57
2021/05/11 21:29:35;;;;;;;15.73;14.25;;;;;;;15.27;86.16;99522.50;10202413;28;20134;-58
2021/05/11 21:34:39;;;;;;;14.50;13.18;;;;;;;15.31;86.04;99518.44;10206992;28;20158;-57
2021/05/11 21:39:41;;;;;;;13.50;12.30;;;;;;;15.42;85.16;99512.72;10208234;28;20047;-57
2021/05/11 21:44:43;;;;;;;12.80;11.73;;;;;;;15.46;84.98;99516.72;10212864;28;20082;-58
2021/05/11 21:49:44;;;;;;;14.63;13.30;;;;;;;15.48;84.67;99525.44;10207983;28;20133;-61
2021/05/11 21:54:46;;;;;;;13.80;12.60;;;;;;;15.48;84.55;99527.28;10221952;28;20054;-62
2021/05/11 21:59:47;;;;;;;13.18;12.07;;;;;;;15.33;84.65;99537.88;10243747;28;20126;-62
2021/05/11 22:04:49;;;;;;;11.50;10.52;;;;;;;15.22;84.49;99533.69;10234314;28;20043;-61
2021/05/11 22:09:50;;;;;;;10.73;9.82;;;;;;;15.22;84.48;99528.34;10240544;28;20051;-62
2021/05/11 22:14:52;;;;;;;11.07;10.18;;;;;;;15.19;84.46;99536.72;10241764;28;20067;-61
2021/05/11 22:19:54;;;;;;;11.73;10.57;;;;;;;15.20;84.02;99544.59;10242539;28;20125;-62
2021/05/11 22:24:55;;;;;;;10.65;9.75;;;;;;;15.27;84.10;99542.09;10239755;28;20070;-62
2021/05/11 22:29:57;;;;;;;11.20;10.18;;;;;;;15.27;83.44;99541.25;10242013;28;20042;-61
2021/05/11 22:34:59;;;;;;;10.43;9.52;;;;;;;15.29;83.64;99548.09;10242642;28;20098;-61
2021/05/11 22:40:01;;;;;;;10.48;9.40;;;;;;;15.31;82.78;99553.28;10237407;28;20058;-60
2021/05/11 22:45:04;;;;;;;9.77;8.88;;;;;;;15.32;83.10;99557.66;10241150;28;20109;-62
2021/05/11 22:50:06;;;;;;;11.27;10.10;;;;;;;15.33;82.39;99562.00;10243031;28;20050;-60
2021/05/11 22:55:08;;;;;;;9.57;8.35;;;;;;;15.35;82.11;99566.19;10241131;28;20062;-60
2021/05/11 23:00:10;;;;;;;10.02;9.02;;;;;;;15.32;82.04;99563.00;10236082;28;20752;-60
2021/05/11 23:05:12;;;;;;;10.18;9.15;;;;;;;15.32;81.40;99560.34;10245382;28;20377;-61
2021/05/11 23:10:14;;;;;;;10.68;9.07;;;;;;;15.28;80.80;99564.34;10241573;28;20054;-60
2021/05/11 23:15:25;;;;;;;10.68;9.50;;;;;;;15.16;80.44;99566.56;10238681;28;20054;-60
2021/05/11 23:20:27;;;;;;;10.85;9.90;;;;;;;15.14;80.39;99558.69;10250236;28;20050;-60
2021/05/11 23:25:29;;;;;;;10.85;9.80;;;;;;;15.18;80.62;99567.25;10243223;28;20066;-60
2021/05/11 23:30:32;;;;;;;10.10;9.20;;;;;;;15.22;79.73;99573.09;10244990;28;20106;-61
2021/05/11 23:35:34;;;;;;;10.68;9.68;;;;;;;15.11;79.29;99575.09;10233145;28;20046;-61
2021/05/11 23:40:35;;;;;;;9.85;8.43;;;;;;;15.04;79.11;99568.75;10248546;28;20113;-60
2021/05/11 23:45:39;;;;;;;8.75;7.80;;;;;;;15.10;79.76;99573.44;10237106;28;20157;-61
2021/05/11 23:50:40;;;;;;;8.90;7.83;;;;;;;15.00;79.86;99578.97;10234083;28;20055;-61
2021/05/11 23:55:42;;;;;;;9.45;8.40;;;;;;;15.06;79.37;99588.19;10237048;28;20058;-61
